createdAt,value
2017-10-22T00:00:44.944Z,10.90
2017-10-22T00:03:11.237Z,10.90
2017-10-22T00:05:37.552Z,10.80
2017-10-22T00:08:04.600Z,10.80
2017-10-22T00:10:31.691Z,10.80
2017-10-22T00:12:58.012Z,10.80
2017-10-22T00:15:24.340Z,10.70
2017-10-22T00:17:50.676Z,10.60
2017-10-22T00:20:17.012Z,10.50
2017-10-22T00:22:43.326Z,10.40
2017-10-22T00:25:09.623Z,10.20
2017-10-22T00:27:36.719Z,10.00
2017-10-22T00:30:03.012Z,9.90
2017-10-22T00:32:30.124Z,9.90
2017-10-22T00:34:56.435Z,9.80
2017-10-22T00:37:22.716Z,9.90
2017-10-22T00:39:49.778Z,9.90
2017-10-22T00:42:16.067Z,9.80
2017-10-22T00:44:42.404Z,9.90
2017-10-22T00:47:08.692Z,9.80
2017-10-22T00:49:35.027Z,9.80
2017-10-22T00:52:01.300Z,9.80
2017-10-22T00:54:28.464Z,9.60
2017-10-22T00:56:55.480Z,9.70
2017-10-22T00:59:21.792Z,9.60
2017-10-22T01:01:48.189Z,9.90
2017-10-22T01:04:14.641Z,9.80
2017-10-22T01:06:41.032Z,9.80
2017-10-22T01:09:08.052Z,9.80
2017-10-22T01:11:41.601Z,9.80
2017-10-22T01:14:07.929Z,9.80
2017-10-22T01:16:34.393Z,10.00
2017-10-22T01:19:00.670Z,10.10
2017-10-22T01:21:27.740Z,9.90
2017-10-22T01:23:54.052Z,9.90
2017-10-22T01:26:21.105Z,10.00
2017-10-22T01:28:48.197Z,10.20
2017-10-22T01:31:14.505Z,10.20
2017-10-22T01:33:40.855Z,10.20
2017-10-22T01:36:07.149Z,10.30
2017-10-22T01:38:33.424Z,10.20
2017-10-22T01:40:59.708Z,10.20
2017-10-22T01:43:26.026Z,10.10
2017-10-22T01:45:53.065Z,10.10
2017-10-22T01:48:20.136Z,10.20
2017-10-22T01:50:46.446Z,10.20
2017-10-22T01:53:13.472Z,10.40
2017-10-22T01:55:39.762Z,10.30
2017-10-22T01:58:06.189Z,10.10
2017-10-22T02:00:32.544Z,9.90
2017-10-22T02:02:58.864Z,9.90
2017-10-22T02:05:25.149Z,9.80
2017-10-22T02:07:52.287Z,10.10
2017-10-22T02:10:19.347Z,10.20
2017-10-22T02:12:46.387Z,10.40
2017-10-22T02:15:13.392Z,10.70
2017-10-22T02:17:39.681Z,10.60
2017-10-22T02:20:06.004Z,10.70
2017-10-22T02:22:33.079Z,10.80
2017-10-22T02:24:59.352Z,10.70
2017-10-22T02:27:26.494Z,10.90
2017-10-22T02:29:54.280Z,10.80
2017-10-22T02:32:21.358Z,10.80
2017-10-22T02:34:47.663Z,10.80
2017-10-22T02:37:14.713Z,10.80
2017-10-22T02:39:41.893Z,10.70
2017-10-22T02:42:08.217Z,10.70
2017-10-22T02:44:34.718Z,10.50
2017-10-22T02:47:01.757Z,10.40
2017-10-22T02:49:28.191Z,10.40
2017-10-22T02:51:55.248Z,10.20
2017-10-22T02:54:22.407Z,10.10
2017-10-22T02:56:49.437Z,10.00
2017-10-22T02:59:15.757Z,9.90
2017-10-22T03:01:42.067Z,9.90
2017-10-22T03:04:08.344Z,10.00
2017-10-22T03:06:35.388Z,10.50
2017-10-22T03:09:02.463Z,10.60
2017-10-22T03:11:28.782Z,10.60
2017-10-22T03:13:55.087Z,10.80
2017-10-22T03:16:21.412Z,10.80
2017-10-22T03:18:47.777Z,10.90
2017-10-22T03:21:14.082Z,10.90
2017-10-22T03:23:41.112Z,10.60
2017-10-22T03:26:07.424Z,10.60
2017-10-22T03:28:33.868Z,10.60
2017-10-22T03:31:00.253Z,10.50
2017-10-22T03:33:26.767Z,10.40
2017-10-22T03:35:53.809Z,10.10
2017-10-22T03:38:20.856Z,10.00
2017-10-22T03:40:48.135Z,10.00
2017-10-22T03:43:14.479Z,9.90
2017-10-22T03:45:40.759Z,10.10
2017-10-22T03:48:07.047Z,10.10
2017-10-22T03:50:33.336Z,10.10
2017-10-22T03:52:59.625Z,10.20
2017-10-22T03:55:25.952Z,10.30
2017-10-22T03:57:52.279Z,10.50
2017-10-22T04:00:18.562Z,10.40
2017-10-22T04:02:44.866Z,10.50
2017-10-22T04:05:11.967Z,10.30
2017-10-22T04:07:38.251Z,10.30
2017-10-22T04:10:05.300Z,10.30
2017-10-22T04:12:32.356Z,10.20
2017-10-22T04:14:59.378Z,10.10
2017-10-22T04:17:25.674Z,10.00
2017-10-22T04:19:52.012Z,9.90
2017-10-22T04:22:18.359Z,9.70
2017-10-22T04:24:44.640Z,9.70
2017-10-22T04:27:10.936Z,9.70
2017-10-22T04:29:37.967Z,9.50
2017-10-22T04:32:04.291Z,9.50
2017-10-22T04:34:30.616Z,9.70
2017-10-22T04:36:56.949Z,9.50
2017-10-22T04:39:23.264Z,9.50
2017-10-22T04:41:49.567Z,9.40
2017-10-22T04:44:15.869Z,9.40
2017-10-22T04:46:42.940Z,9.50
2017-10-22T04:49:09.256Z,9.50
2017-10-22T04:51:36.360Z,9.40
2017-10-22T04:54:02.656Z,9.40
2017-10-22T04:56:28.961Z,9.50
2017-10-22T04:58:55.991Z,9.50
2017-10-22T05:01:22.271Z,9.50
2017-10-22T05:03:48.595Z,9.60
2017-10-22T05:06:14.876Z,9.60
2017-10-22T05:08:41.943Z,9.50
2017-10-22T05:11:09.059Z,9.60
2017-10-22T05:13:35.372Z,9.60
2017-10-22T05:16:01.629Z,9.80
2017-10-22T05:18:27.940Z,10.00
2017-10-22T05:20:54.279Z,10.10
2017-10-22T05:23:20.580Z,10.20
2017-10-22T05:25:46.870Z,10.10
2017-10-22T05:28:13.878Z,10.40
2017-10-22T05:30:40.197Z,10.40
2017-10-22T05:33:06.540Z,10.40
2017-10-22T05:35:32.869Z,10.30
2017-10-22T05:37:59.188Z,10.30
2017-10-22T05:40:25.456Z,10.20
2017-10-22T05:42:52.587Z,10.50
2017-10-22T05:45:18.888Z,10.40
2017-10-22T05:47:45.208Z,10.50
2017-10-22T05:50:11.481Z,10.50
2017-10-22T05:52:37.807Z,10.60
2017-10-22T05:55:04.157Z,10.70
2017-10-22T05:57:31.165Z,10.80
2017-10-22T05:59:57.462Z,10.80
2017-10-22T06:02:23.749Z,10.90
2017-10-22T06:04:50.220Z,11.00
2017-10-22T06:07:16.723Z,11.00
2017-10-22T06:09:43.100Z,11.00
2017-10-22T06:12:09.403Z,11.10
2017-10-22T06:14:36.488Z,11.10
2017-10-22T06:17:03.128Z,11.10
2017-10-22T06:19:29.420Z,11.10
2017-10-22T06:21:56.462Z,11.40
2017-10-22T06:24:23.510Z,11.30
2017-10-22T06:26:50.765Z,11.30
2017-10-22T06:29:17.764Z,11.30
2017-10-22T06:31:44.091Z,11.30
2017-10-22T06:34:10.392Z,11.40
2017-10-22T06:36:36.732Z,11.40
2017-10-22T06:39:03.024Z,11.60
2017-10-22T06:41:30.182Z,11.70
2017-10-22T06:43:57.231Z,11.70
2017-10-22T06:46:23.546Z,11.70
2017-10-22T06:48:50.661Z,11.60
2017-10-22T06:51:17.025Z,11.60
2017-10-22T06:53:44.080Z,11.80
2017-10-22T06:56:11.101Z,12.00
2017-10-22T06:58:37.423Z,12.00
2017-10-22T07:01:03.748Z,12.10
2017-10-22T07:03:30.071Z,12.20
2017-10-22T07:05:56.433Z,12.30
2017-10-22T07:08:23.488Z,12.50
2017-10-22T07:10:50.567Z,12.60
2017-10-22T07:13:16.877Z,12.50
2017-10-22T07:15:43.924Z,12.60
2017-10-22T07:18:11.172Z,12.60
2017-10-22T07:20:38.364Z,12.70
2017-10-22T07:23:05.045Z,12.70
2017-10-22T07:25:32.214Z,12.80
2017-10-22T07:27:59.304Z,12.90
2017-10-22T07:30:25.639Z,12.90
2017-10-22T07:32:51.976Z,13.00
2017-10-22T07:35:18.273Z,13.10
2017-10-22T07:37:44.584Z,13.10
2017-10-22T07:40:11.600Z,12.80
2017-10-22T07:42:38.708Z,12.80
2017-10-22T07:45:09.672Z,12.80
2017-10-22T07:47:36.047Z,12.70
2017-10-22T07:50:03.116Z,12.50
2017-10-22T07:52:29.418Z,12.50
2017-10-22T07:54:57.405Z,12.50
2017-10-22T07:57:26.007Z,12.70
2017-10-22T07:59:52.909Z,12.70
2017-10-22T08:02:19.755Z,12.60
2017-10-22T08:04:46.566Z,12.60
2017-10-22T08:07:13.165Z,12.50
2017-10-22T08:09:40.322Z,12.60
2017-10-22T08:12:07.064Z,12.50
2017-10-22T08:14:33.439Z,12.50
2017-10-22T08:16:59.787Z,12.60
2017-10-22T08:19:26.946Z,12.60
2017-10-22T08:21:53.996Z,12.50
2017-10-22T08:24:21.029Z,12.50
2017-10-22T08:26:48.102Z,12.60
2017-10-22T08:29:14.772Z,12.60
2017-10-22T08:31:41.201Z,12.50
2017-10-22T08:34:07.536Z,12.50
2017-10-22T08:36:33.869Z,12.60
2017-10-22T08:39:00.199Z,12.60
2017-10-22T08:41:26.508Z,12.70
2017-10-22T08:43:52.828Z,12.60
2017-10-22T08:46:19.136Z,12.70
2017-10-22T08:48:46.369Z,12.70
2017-10-22T08:51:12.710Z,12.70
2017-10-22T08:53:39.790Z,12.80
2017-10-22T08:56:06.132Z,12.80
2017-10-22T08:58:32.924Z,12.90
2017-10-22T09:00:59.206Z,12.90
2017-10-22T09:03:25.506Z,12.80
2017-10-22T09:05:52.563Z,12.90
2017-10-22T09:08:18.952Z,12.90
2017-10-22T09:10:45.290Z,12.80
2017-10-22T09:13:11.620Z,12.80
2017-10-22T09:15:39.767Z,12.70
2017-10-22T09:18:06.900Z,12.70
2017-10-22T09:20:33.341Z,12.60
2017-10-22T09:22:59.664Z,12.80
2017-10-22T09:25:25.984Z,12.80
2017-10-22T09:27:52.334Z,12.70
2017-10-22T09:30:18.669Z,12.80
2017-10-22T09:32:44.969Z,12.70
2017-10-22T09:35:11.317Z,12.80
2017-10-22T09:37:37.721Z,12.80
2017-10-22T09:40:04.156Z,12.70
2017-10-22T09:42:30.678Z,12.70
2017-10-22T09:44:57.711Z,12.70
2017-10-22T09:47:24.172Z,12.70
2017-10-22T09:49:50.508Z,12.80
2017-10-22T09:52:17.009Z,12.80
2017-10-22T09:54:43.295Z,12.80
2017-10-22T09:57:09.748Z,12.80
2017-10-22T09:59:36.088Z,12.80
2017-10-22T10:02:02.477Z,12.70
2017-10-22T10:04:28.796Z,12.70
2017-10-22T10:06:55.100Z,12.80
2017-10-22T10:09:22.136Z,12.80
2017-10-22T10:11:48.449Z,12.80
2017-10-22T10:14:14.760Z,12.80
2017-10-22T10:16:41.112Z,12.80
2017-10-22T10:19:07.400Z,12.80
2017-10-22T10:21:33.743Z,12.80
2017-10-22T10:24:00.086Z,12.90
2017-10-22T10:26:26.405Z,12.90
2017-10-22T10:28:52.721Z,13.00
2017-10-22T10:31:19.065Z,13.10
2017-10-22T10:33:45.366Z,13.00
2017-10-22T10:36:11.709Z,13.10
2017-10-22T10:38:38.111Z,13.10
2017-10-22T10:41:05.193Z,13.00
2017-10-22T10:43:31.516Z,13.00
2017-10-22T10:45:57.876Z,13.10
2017-10-22T10:48:24.173Z,13.20
2017-10-22T10:50:50.622Z,13.30
2017-10-22T10:53:16.928Z,13.30
2017-10-22T10:55:44.272Z,13.40
2017-10-22T10:58:11.349Z,13.30
2017-10-22T11:00:37.654Z,13.30
2017-10-22T11:03:04.754Z,13.20
2017-10-22T11:05:31.058Z,13.20
2017-10-22T11:07:57.361Z,13.20
2017-10-22T11:10:24.523Z,13.70
2017-10-22T11:12:50.844Z,13.70
2017-10-22T11:15:18.254Z,14.30
2017-10-22T11:17:44.959Z,14.30
2017-10-22T11:20:11.265Z,14.50
2017-10-22T11:22:38.361Z,14.70
2017-10-22T11:25:04.690Z,14.70
2017-10-22T11:27:31.117Z,14.60
2017-10-22T11:29:57.442Z,14.50
2017-10-22T11:32:23.760Z,14.40
2017-10-22T11:34:50.053Z,14.20
2017-10-22T11:37:16.444Z,14.00
2017-10-22T11:39:42.794Z,13.90
2017-10-22T11:42:09.131Z,13.80
2017-10-22T11:44:35.470Z,13.80
2017-10-22T11:47:03.297Z,13.60
2017-10-22T11:49:29.752Z,13.60
2017-10-22T11:51:56.078Z,13.60
2017-10-22T11:54:22.422Z,13.60
2017-10-22T11:56:49.035Z,13.60
2017-10-22T11:59:15.381Z,13.40
2017-10-22T12:01:41.847Z,13.30
2017-10-22T12:04:09.261Z,13.30
2017-10-22T12:06:35.716Z,13.20
2017-10-22T12:09:02.055Z,13.40
2017-10-22T12:11:29.249Z,13.40
2017-10-22T12:13:55.594Z,13.40
2017-10-22T12:16:21.921Z,13.30
2017-10-22T12:18:48.363Z,13.40
2017-10-22T12:21:14.981Z,13.30
2017-10-22T12:23:41.324Z,13.30
2017-10-22T12:26:07.600Z,13.20
2017-10-22T12:28:34.713Z,13.10
2017-10-22T12:31:01.063Z,13.10
2017-10-22T12:33:27.393Z,13.10
2017-10-22T12:35:53.746Z,13.00
2017-10-22T12:38:20.849Z,13.00
2017-10-22T12:40:47.140Z,13.00
2017-10-22T12:43:13.444Z,13.00
2017-10-22T12:45:39.800Z,12.90
2017-10-22T12:48:06.906Z,12.80
2017-10-22T12:50:33.245Z,12.80
2017-10-22T12:52:59.719Z,12.80
2017-10-22T12:55:26.120Z,12.70
2017-10-22T12:57:53.473Z,12.70
2017-10-22T13:00:19.896Z,12.60
2017-10-22T13:02:46.982Z,12.70
2017-10-22T13:05:14.014Z,12.70
2017-10-22T13:07:41.092Z,12.70
2017-10-22T13:10:07.628Z,12.60
2017-10-22T13:12:33.945Z,12.70
2017-10-22T13:15:00.305Z,12.70
2017-10-22T13:17:26.636Z,12.80
2017-10-22T13:19:52.952Z,12.90
2017-10-22T13:22:19.340Z,12.80
2017-10-22T13:24:45.632Z,12.70
2017-10-22T13:27:11.962Z,12.60
2017-10-22T13:29:38.280Z,12.60
2017-10-22T13:32:04.668Z,12.60
2017-10-22T13:34:31.733Z,12.60
2017-10-22T13:36:58.799Z,12.50
2017-10-22T13:39:25.182Z,12.50
2017-10-22T13:41:51.488Z,12.50
2017-10-22T13:44:17.859Z,12.50
2017-10-22T13:46:44.931Z,12.50
2017-10-22T13:49:12.989Z,12.50
2017-10-22T13:51:40.104Z,12.50
2017-10-22T13:54:08.105Z,12.50
2017-10-22T13:56:35.499Z,12.60
2017-10-22T13:59:01.842Z,12.50
2017-10-22T14:01:29.283Z,12.50
2017-10-22T14:03:55.689Z,12.50
2017-10-22T14:06:22.063Z,12.40
2017-10-22T14:08:48.403Z,12.40
2017-10-22T14:11:16.752Z,12.30
2017-10-22T14:13:43.104Z,12.20
2017-10-22T14:16:11.319Z,12.20
2017-10-22T14:18:37.852Z,12.10
2017-10-22T14:21:05.001Z,12.10
2017-10-22T14:23:32.202Z,12.10
2017-10-22T14:25:58.570Z,12.10
2017-10-22T14:28:24.888Z,12.10
2017-10-22T14:30:51.267Z,12.00
2017-10-22T14:33:17.592Z,12.00
2017-10-22T14:35:43.888Z,12.00
2017-10-22T14:38:10.268Z,12.00
2017-10-22T14:40:36.660Z,12.00
2017-10-22T14:43:03.090Z,12.00
2017-10-22T14:45:29.428Z,11.90
2017-10-22T14:47:56.480Z,12.00
2017-10-22T14:50:23.567Z,12.00
2017-10-22T14:52:49.935Z,12.00
2017-10-22T14:55:16.248Z,12.00
2017-10-22T14:57:42.976Z,12.00
2017-10-22T15:00:09.320Z,12.00
2017-10-22T15:02:35.683Z,12.10
2017-10-22T15:05:02.731Z,12.30
2017-10-22T15:07:29.817Z,12.50
2017-10-22T15:09:57.762Z,12.50
2017-10-22T15:12:24.862Z,12.80
2017-10-22T15:14:51.221Z,12.70
2017-10-22T15:17:17.546Z,12.80
2017-10-22T15:19:43.941Z,12.80
2017-10-22T15:22:10.320Z,12.90
2017-10-22T15:24:37.423Z,12.80
2017-10-22T15:27:03.769Z,12.80
2017-10-22T15:29:30.165Z,12.70
2017-10-22T15:31:56.580Z,12.70
2017-10-22T15:34:22.930Z,12.60
2017-10-22T15:36:50.492Z,12.50
2017-10-22T15:39:18.514Z,12.50
2017-10-22T15:41:44.916Z,12.40
2017-10-22T15:44:11.249Z,12.40
2017-10-22T15:46:38.225Z,12.40
2017-10-22T15:49:04.765Z,12.30
2017-10-22T15:51:31.089Z,12.20
2017-10-22T15:53:58.529Z,12.10
2017-10-22T15:56:24.948Z,12.10
2017-10-22T15:58:51.422Z,12.10
2017-10-22T16:01:18.756Z,11.80
2017-10-22T16:03:45.263Z,11.80
2017-10-22T16:06:11.744Z,11.80
2017-10-22T16:08:39.004Z,11.70
2017-10-22T16:11:06.053Z,11.70
2017-10-22T16:13:33.322Z,11.60
2017-10-22T16:15:59.730Z,11.60
2017-10-22T16:18:27.030Z,11.50
2017-10-22T16:20:53.406Z,11.60
2017-10-22T16:23:20.493Z,11.40
2017-10-22T16:25:46.985Z,11.40
2017-10-22T16:28:13.316Z,11.20
2017-10-22T16:30:39.688Z,11.00
2017-10-22T16:33:06.013Z,11.00
2017-10-22T16:35:32.315Z,10.90
2017-10-22T16:37:59.439Z,10.80
2017-10-22T16:40:25.775Z,10.80
2017-10-22T16:42:52.091Z,10.70
2017-10-22T16:45:18.468Z,10.60
2017-10-22T16:47:44.834Z,10.50
2017-10-22T16:50:11.143Z,10.50
2017-10-22T16:52:39.688Z,10.50
2017-10-22T16:55:06.089Z,10.40
2017-10-22T16:57:32.733Z,10.30
2017-10-22T16:59:59.314Z,10.30
2017-10-22T17:02:26.436Z,10.10
2017-10-22T17:04:52.813Z,10.10
2017-10-22T17:07:19.152Z,10.20
2017-10-22T17:09:45.613Z,10.10
2017-10-22T17:12:12.104Z,10.00
2017-10-22T17:14:38.456Z,10.00
2017-10-22T17:17:04.826Z,10.00
2017-10-22T17:19:31.165Z,9.90
2017-10-22T17:21:57.542Z,10.00
2017-10-22T17:24:23.918Z,10.10
2017-10-22T17:26:50.428Z,10.10
2017-10-22T17:29:18.055Z,9.90
2017-10-22T17:31:44.412Z,9.80
2017-10-22T17:34:11.094Z,9.70
2017-10-22T17:36:38.159Z,9.60
2017-10-22T17:39:05.331Z,9.70
2017-10-22T17:41:31.713Z,9.60
2017-10-22T17:43:58.153Z,9.60
2017-10-22T17:46:24.525Z,9.50
2017-10-22T17:48:50.956Z,9.50
2017-10-22T17:51:17.924Z,9.60
2017-10-22T17:53:44.426Z,9.50
2017-10-22T17:56:14.923Z,9.50
2017-10-22T17:58:41.307Z,9.40
2017-10-22T18:01:07.611Z,9.30
2017-10-22T18:03:35.638Z,9.20
2017-10-22T18:06:02.846Z,9.20
2017-10-22T18:08:29.211Z,9.10
2017-10-22T18:10:55.663Z,9.00
2017-10-22T18:13:22.163Z,8.90
2017-10-22T18:15:48.668Z,8.90
2017-10-22T18:18:15.754Z,9.10
2017-10-22T18:20:42.403Z,9.10
2017-10-22T18:23:09.083Z,9.10
2017-10-22T18:25:35.460Z,9.20
2017-10-22T18:28:01.816Z,9.20
2017-10-22T18:30:28.164Z,9.40
2017-10-22T18:32:54.545Z,9.70
2017-10-22T18:35:21.140Z,9.80
2017-10-22T18:37:47.506Z,10.00
2017-10-22T18:40:13.880Z,10.00
2017-10-22T18:42:40.205Z,10.20
2017-10-22T18:45:07.545Z,10.10
2017-10-22T18:47:33.952Z,10.00
2017-10-22T18:50:00.313Z,9.90
2017-10-22T18:52:26.658Z,9.90
2017-10-22T18:54:53.017Z,10.00
2017-10-22T18:57:20.101Z,10.00
2017-10-22T18:59:46.448Z,10.00
2017-10-22T19:02:12.821Z,10.00
2017-10-22T19:04:39.222Z,10.00
2017-10-22T19:07:05.599Z,10.20
2017-10-22T19:09:32.677Z,10.10
2017-10-22T19:11:59.019Z,10.10
2017-10-22T19:14:25.342Z,10.20
2017-10-22T19:16:51.714Z,10.10
2017-10-22T19:19:18.088Z,10.10
2017-10-22T19:21:44.412Z,10.10
2017-10-22T19:24:10.747Z,10.10
2017-10-22T19:26:37.256Z,10.10
2017-10-22T19:29:04.514Z,9.90
2017-10-22T19:31:31.561Z,9.90
2017-10-22T19:33:58.858Z,9.80
2017-10-22T19:36:25.439Z,9.80
2017-10-22T19:38:54.216Z,9.70
2017-10-22T19:41:20.589Z,9.50
2017-10-22T19:43:46.948Z,9.40
2017-10-22T19:46:13.327Z,9.30
2017-10-22T19:48:40.437Z,9.00
2017-10-22T19:51:06.793Z,9.00
2017-10-22T19:53:33.269Z,8.90
2017-10-22T19:55:59.675Z,8.80
2017-10-22T19:58:26.874Z,8.50
2017-10-22T20:00:53.241Z,8.50
2017-10-22T20:03:20.317Z,8.40
2017-10-22T20:05:48.994Z,8.30
2017-10-22T20:08:16.128Z,8.30
2017-10-22T20:10:42.696Z,8.30
2017-10-22T20:13:10.095Z,8.20
2017-10-22T20:15:36.523Z,8.10
2017-10-22T20:18:02.957Z,8.00
2017-10-22T20:20:29.450Z,7.90
2017-10-22T20:22:56.027Z,7.80
2017-10-22T20:25:22.502Z,7.70
2017-10-22T20:27:50.002Z,7.60
2017-10-22T20:30:16.338Z,7.60
2017-10-22T20:32:42.716Z,7.60
2017-10-22T20:35:09.827Z,7.60
2017-10-22T20:37:36.180Z,7.60
2017-10-22T20:40:02.529Z,7.60
2017-10-22T20:42:29.623Z,7.60
2017-10-22T20:44:55.989Z,7.60
2017-10-22T20:47:22.701Z,7.60
2017-10-22T20:49:49.065Z,7.60
2017-10-22T20:52:15.465Z,7.70
2017-10-22T20:54:41.863Z,7.70
2017-10-22T20:57:08.232Z,7.70
2017-10-22T20:59:34.841Z,7.70
2017-10-22T21:02:01.321Z,7.60
2017-10-22T21:04:28.427Z,7.80
2017-10-22T21:06:54.739Z,7.80
2017-10-22T21:09:21.106Z,7.90
2017-10-22T21:11:47.448Z,7.80
2017-10-22T21:14:13.861Z,7.80
2017-10-22T21:16:40.275Z,7.80
2017-10-22T21:19:06.604Z,7.80
2017-10-22T21:21:33.260Z,8.00
2017-10-22T21:23:59.548Z,8.20
2017-10-22T21:26:26.725Z,8.50
2017-10-22T21:28:53.188Z,8.40
2017-10-22T21:31:19.719Z,8.50
2017-10-22T21:33:46.056Z,8.40
2017-10-22T21:36:12.471Z,8.30
2017-10-22T21:38:39.014Z,8.30
2017-10-22T21:41:05.409Z,8.30
2017-10-22T21:43:31.778Z,8.20
2017-10-22T21:45:58.108Z,8.20
2017-10-22T21:48:24.461Z,8.20
2017-10-22T21:50:50.824Z,8.20
2017-10-22T21:53:17.909Z,8.40
2017-10-22T21:55:44.224Z,8.40
2017-10-22T21:58:10.505Z,8.40
2017-10-22T22:00:36.831Z,8.60
2017-10-22T22:03:03.172Z,8.60
2017-10-22T22:05:29.683Z,8.60
2017-10-22T22:07:55.990Z,8.70
2017-10-22T22:10:22.282Z,8.70
2017-10-22T22:12:49.350Z,8.80
2017-10-22T22:15:15.656Z,8.70
2017-10-22T22:17:42.957Z,8.80
2017-10-22T22:20:09.327Z,8.80
2017-10-22T22:22:35.648Z,8.90
2017-10-22T22:25:01.992Z,8.90
2017-10-22T22:27:28.322Z,9.00
2017-10-22T22:29:55.376Z,9.10
2017-10-22T22:32:21.674Z,9.10
2017-10-22T22:34:48.007Z,9.10
2017-10-22T22:37:14.307Z,9.20
2017-10-22T22:39:40.708Z,9.10
2017-10-22T22:42:07.753Z,9.10
2017-10-22T22:44:34.804Z,9.10
2017-10-22T22:47:01.863Z,9.20
2017-10-22T22:49:28.289Z,9.20
2017-10-22T22:51:54.615Z,9.20
2017-10-22T22:54:21.636Z,9.20
2017-10-22T22:56:47.976Z,9.10
2017-10-22T22:59:14.273Z,9.10
2017-10-22T23:01:40.583Z,9.10
2017-10-22T23:04:06.888Z,9.30
2017-10-22T23:06:33.912Z,9.40
2017-10-22T23:09:00.200Z,9.40
2017-10-22T23:11:26.508Z,9.30
2017-10-22T23:13:52.871Z,9.30
2017-10-22T23:16:19.211Z,9.20
2017-10-22T23:18:45.522Z,9.10
2017-10-22T23:21:11.836Z,9.10
2017-10-22T23:23:38.191Z,9.00
2017-10-22T23:26:04.488Z,9.00
2017-10-22T23:28:30.767Z,9.00
2017-10-22T23:30:57.097Z,9.00
2017-10-22T23:33:23.404Z,8.90
2017-10-22T23:35:49.671Z,8.80
2017-10-22T23:38:16.776Z,8.60
2017-10-22T23:40:43.182Z,8.60
2017-10-22T23:43:09.504Z,8.60
2017-10-22T23:45:36.543Z,8.40
2017-10-22T23:48:03.596Z,8.30
2017-10-22T23:50:30.622Z,8.30
2017-10-22T23:52:56.895Z,8.20
2017-10-22T23:55:23.204Z,8.30
2017-10-22T23:57:50.354Z,8.20
